createdAt,value
2023-06-11T00:00:49.298Z,21.51
2023-06-11T00:05:52.831Z,21.46
2023-06-11T00:10:56.706Z,21.41
2023-06-11T00:16:03.016Z,21.36
2023-06-11T00:21:16.813Z,21.32
2023-06-11T00:26:23.674Z,21.27
2023-06-11T00:31:28.186Z,21.18
2023-06-11T00:36:33.741Z,21.12
2023-06-11T00:41:40.245Z,21.07
2023-06-11T00:46:53.520Z,21.02
2023-06-11T00:51:55.290Z,20.96
2023-06-11T00:57:05.531Z,20.92
2023-06-11T01:02:38.782Z,20.86
2023-06-11T01:07:52.543Z,20.80
2023-06-11T01:13:33.176Z,20.76
2023-06-11T01:18:46.739Z,20.71
2023-06-11T01:24:08.679Z,20.67
2023-06-11T01:29:16.177Z,20.64
2023-06-11T01:34:21.653Z,20.60
2023-06-11T01:39:27.381Z,20.55
2023-06-11T01:44:38.992Z,20.53
2023-06-11T01:49:40.964Z,20.50
2023-06-11T01:54:47.177Z,20.47
2023-06-11T01:59:54.789Z,20.43
2023-06-11T02:04:56.354Z,20.40
2023-06-11T02:10:00.336Z,20.35
2023-06-11T02:15:08.292Z,20.32
2023-06-11T02:20:13.239Z,20.29
2023-06-11T02:25:15.177Z,20.23
2023-06-11T02:30:19.160Z,20.19
2023-06-11T02:35:28.619Z,20.13
2023-06-11T02:40:38.217Z,20.08
2023-06-11T02:45:45.841Z,20.05
2023-06-11T02:50:49.994Z,20.01
2023-06-11T02:55:53.784Z,20.00
2023-06-11T03:00:55.610Z,19.97
2023-06-11T03:06:08.869Z,19.93
2023-06-11T03:11:13.066Z,19.89
2023-06-11T03:16:21.782Z,19.87
2023-06-11T03:21:31.234Z,19.83
2023-06-11T03:26:33.094Z,19.81
2023-06-11T03:31:35.040Z,19.78
2023-06-11T03:36:39.052Z,19.75
2023-06-11T03:41:53.682Z,19.75
2023-06-11T03:47:06.584Z,19.74
2023-06-11T03:52:14.400Z,19.75
2023-06-11T03:57:22.281Z,19.75
2023-06-11T04:02:30.723Z,19.74
2023-06-11T04:07:44.499Z,19.77
2023-06-11T04:12:48.891Z,19.80
2023-06-11T04:17:54.020Z,19.82
2023-06-11T04:23:15.309Z,19.84
2023-06-11T04:28:18.239Z,19.87
2023-06-11T04:33:23.668Z,19.89
2023-06-11T04:38:26.873Z,19.94
2023-06-11T04:43:34.483Z,19.99
2023-06-11T04:48:46.758Z,20.06
2023-06-11T04:53:48.406Z,20.12
2023-06-11T04:58:55.244Z,20.18
2023-06-11T05:04:02.439Z,20.20
2023-06-11T05:09:04.689Z,20.28
2023-06-11T05:14:08.188Z,20.32
2023-06-11T05:19:12.215Z,20.36
2023-06-11T05:24:21.194Z,20.43
2023-06-11T05:29:28.979Z,20.49
2023-06-11T05:34:35.488Z,20.52
2023-06-11T05:39:42.706Z,20.61
2023-06-11T05:44:44.774Z,20.68
2023-06-11T05:49:51.599Z,20.76
2023-06-11T05:54:57.078Z,20.84
2023-06-11T06:00:02.244Z,20.91
2023-06-11T06:05:08.447Z,21.00
2023-06-11T06:10:11.065Z,21.09
2023-06-11T06:15:17.778Z,21.16
2023-06-11T06:20:23.943Z,21.25
2023-06-11T06:25:30.157Z,21.33
2023-06-11T06:30:39.845Z,21.44
2023-06-11T06:35:44.936Z,21.53
2023-06-11T06:40:50.418Z,21.65
2023-06-11T06:45:52.043Z,21.77
2023-06-11T06:51:00.471Z,21.90
2023-06-11T06:56:03.138Z,22.03
2023-06-11T07:01:10.725Z,22.14
2023-06-11T07:06:19.533Z,22.28
2023-06-11T07:11:24.665Z,22.41
2023-06-11T07:16:32.452Z,22.50
2023-06-11T07:21:38.800Z,22.64
2023-06-11T07:26:42.997Z,22.72
2023-06-11T07:31:50.833Z,22.81
2023-06-11T07:36:55.718Z,22.88
2023-06-11T07:42:01.582Z,22.96
2023-06-11T07:47:03.678Z,23.05
2023-06-11T07:52:06.077Z,23.17
2023-06-11T07:57:12.366Z,23.30
2023-06-11T08:02:16.382Z,23.43
2023-06-11T08:07:30.546Z,23.58
2023-06-11T08:12:34.358Z,23.71
2023-06-11T08:17:37.110Z,23.84
2023-06-11T08:22:40.764Z,23.94
2023-06-11T08:27:47.132Z,24.04
2023-06-11T08:32:48.755Z,24.14
2023-06-11T08:37:58.529Z,24.22
2023-06-11T08:43:02.756Z,24.31
2023-06-11T08:48:10.978Z,24.37
2023-06-11T08:53:15.116Z,24.34
2023-06-11T08:58:17.062Z,24.42
2023-06-11T09:03:23.337Z,24.55
2023-06-11T09:08:25.000Z,24.64
2023-06-11T09:13:31.382Z,24.77
2023-06-11T09:18:45.443Z,24.93
2023-06-11T09:23:49.082Z,25.06
2023-06-11T09:28:55.657Z,25.20
2023-06-11T09:34:07.140Z,25.35
2023-06-11T09:39:17.872Z,25.48
2023-06-11T09:44:20.433Z,25.64
2023-06-11T09:49:23.772Z,25.82
2023-06-11T09:54:28.360Z,25.96
2023-06-11T09:59:31.172Z,26.12
2023-06-11T10:04:32.696Z,26.24
2023-06-11T10:09:44.173Z,26.35
2023-06-11T10:14:56.156Z,26.50
2023-06-11T10:19:57.837Z,26.64
2023-06-11T10:25:08.325Z,26.78
2023-06-11T10:30:26.827Z,26.96
2023-06-11T10:35:35.056Z,27.12
2023-06-11T10:40:38.829Z,27.29
2023-06-11T10:45:42.695Z,27.42
2023-06-11T10:50:46.540Z,27.56
2023-06-11T10:55:51.677Z,27.74
2023-06-11T11:01:01.910Z,27.89
2023-06-11T11:06:10.763Z,28.02
2023-06-11T11:11:14.657Z,28.18
2023-06-11T11:16:16.856Z,28.21
2023-06-11T11:21:29.852Z,28.33
2023-06-11T11:26:42.680Z,28.48
2023-06-11T11:31:47.413Z,28.61
2023-06-11T11:36:51.914Z,28.73
2023-06-11T11:41:55.598Z,28.74
2023-06-11T11:47:04.294Z,28.82
2023-06-11T11:52:18.741Z,28.91
2023-06-11T11:57:26.772Z,28.98
2023-06-11T12:02:33.688Z,29.01
2023-06-11T12:07:37.627Z,28.95
2023-06-11T12:12:39.140Z,28.95
2023-06-11T12:17:45.194Z,29.01
2023-06-11T12:22:49.756Z,29.04
2023-06-11T12:27:53.604Z,29.11
2023-06-11T12:32:57.577Z,29.15
2023-06-11T12:37:59.465Z,29.27
2023-06-11T12:43:08.250Z,29.37
2023-06-11T12:48:12.968Z,29.48
2023-06-11T12:53:14.632Z,29.56
2023-06-11T12:58:28.142Z,29.68
2023-06-11T13:03:30.911Z,29.78
2023-06-11T13:08:43.877Z,29.89
2023-06-11T13:13:51.887Z,29.99
2023-06-11T13:19:00.739Z,30.08
2023-06-11T13:24:04.480Z,30.17
2023-06-11T13:29:10.925Z,30.27
2023-06-11T13:34:12.498Z,30.33
2023-06-11T13:39:18.231Z,30.38
2023-06-11T13:44:26.219Z,30.45
2023-06-11T13:49:30.207Z,30.56
2023-06-11T13:54:37.090Z,30.68
2023-06-11T13:59:41.048Z,30.78
2023-06-11T14:04:46.836Z,30.88
2023-06-11T14:09:54.937Z,30.96
2023-06-11T14:15:02.654Z,31.06
2023-06-11T14:20:07.281Z,31.10
2023-06-11T14:25:12.870Z,31.20
2023-06-11T14:30:18.079Z,31.26
2023-06-11T14:35:22.842Z,31.29
2023-06-11T14:40:25.821Z,31.32
2023-06-11T14:45:30.878Z,31.42
2023-06-11T14:50:37.899Z,31.56
2023-06-11T14:55:41.814Z,31.72
2023-06-11T15:00:47.230Z,31.84
2023-06-11T15:05:57.044Z,32.00
2023-06-11T15:10:58.611Z,32.10
2023-06-11T15:16:02.475Z,32.19
2023-06-11T15:21:09.301Z,32.30
2023-06-11T15:26:13.249Z,32.36
2023-06-11T15:31:23.274Z,32.45
2023-06-11T15:36:27.160Z,32.60
2023-06-11T15:41:31.152Z,32.74
2023-06-11T15:46:33.702Z,32.86
2023-06-11T15:51:41.377Z,32.98
2023-06-11T15:56:48.704Z,33.08
2023-06-11T16:01:56.084Z,33.07
2023-06-11T16:07:07.642Z,33.14
2023-06-11T16:12:11.596Z,33.20
2023-06-11T16:17:13.133Z,33.31
2023-06-11T16:22:24.220Z,33.42
2023-06-11T16:27:28.079Z,33.43
2023-06-11T16:32:35.650Z,33.43
2023-06-11T16:37:41.482Z,33.40
2023-06-11T16:42:45.692Z,33.20
2023-06-11T16:47:49.285Z,32.94
2023-06-11T16:52:56.515Z,32.69
2023-06-11T16:58:06.230Z,32.58
2023-06-11T17:03:10.193Z,32.57
2023-06-11T17:08:13.940Z,32.59
2023-06-11T17:13:23.076Z,32.64
2023-06-11T17:18:30.161Z,32.74
2023-06-11T17:23:41.592Z,32.84
2023-06-11T17:28:45.625Z,32.89
2023-06-11T17:33:49.488Z,32.90
2023-06-11T17:38:55.764Z,32.93
2023-06-11T17:44:07.265Z,32.88
2023-06-11T17:49:12.159Z,32.80
2023-06-11T17:54:13.703Z,32.70
2023-06-11T17:59:21.157Z,32.57
2023-06-11T18:04:23.908Z,32.51
2023-06-11T18:09:27.916Z,32.50
2023-06-11T18:14:32.243Z,32.49
2023-06-11T18:19:37.274Z,32.39
2023-06-11T18:24:46.347Z,32.22
2023-06-11T18:29:52.418Z,31.94
2023-06-11T18:34:56.109Z,31.63
2023-06-11T18:40:00.262Z,31.29
2023-06-11T18:45:04.655Z,30.98
2023-06-11T18:50:07.983Z,30.67
2023-06-11T18:55:10.101Z,30.37
2023-06-11T19:00:12.571Z,30.07
2023-06-11T19:05:15.892Z,29.81
2023-06-11T19:10:17.519Z,29.55
2023-06-11T19:15:22.608Z,29.29
2023-06-11T19:20:27.528Z,29.07
2023-06-11T19:25:40.588Z,28.86
2023-06-11T19:31:00.071Z,28.64
2023-06-11T19:36:07.110Z,28.42
2023-06-11T19:41:15.685Z,28.20
2023-06-11T19:46:27.268Z,28.00
2023-06-11T19:51:34.123Z,27.79
2023-06-11T19:56:38.096Z,27.58
2023-06-11T20:01:46.858Z,27.37
2023-06-11T20:06:58.086Z,27.19
2023-06-11T20:12:12.426Z,27.01
2023-06-11T20:17:17.725Z,26.83
2023-06-11T20:22:23.629Z,26.67
2023-06-11T20:27:27.546Z,26.50
2023-06-11T20:32:44.218Z,26.34
2023-06-11T20:37:57.959Z,26.20
2023-06-11T20:42:59.526Z,26.06
2023-06-11T20:48:03.332Z,25.93
2023-06-11T20:53:16.614Z,25.81
2023-06-11T20:58:29.907Z,25.71
2023-06-11T21:03:37.717Z,25.62
2023-06-11T21:08:41.366Z,25.56
2023-06-11T21:14:08.410Z,25.47
2023-06-11T21:19:19.580Z,25.39
2023-06-11T21:24:21.290Z,25.29
2023-06-11T21:29:28.231Z,25.22
2023-06-11T21:34:34.367Z,25.13
2023-06-11T21:39:45.760Z,25.03
2023-06-11T21:44:47.298Z,24.94
2023-06-11T21:49:48.864Z,24.85
2023-06-11T21:54:53.834Z,24.74
2023-06-11T21:59:57.807Z,24.65
2023-06-11T22:05:10.689Z,24.56
2023-06-11T22:10:19.278Z,24.50
2023-06-11T22:15:20.915Z,24.41
2023-06-11T22:20:26.338Z,24.32
2023-06-11T22:25:30.312Z,24.25
2023-06-11T22:30:38.095Z,24.18
2023-06-11T22:35:51.408Z,24.10
2023-06-11T22:40:52.932Z,24.04
2023-06-11T22:45:54.447Z,23.97
2023-06-11T22:50:58.571Z,23.89
2023-06-11T22:56:07.494Z,23.83
2023-06-11T23:01:09.022Z,23.76
2023-06-11T23:06:14.165Z,23.69
2023-06-11T23:11:19.776Z,23.62
2023-06-11T23:16:21.465Z,23.56
2023-06-11T23:21:27.355Z,23.51
2023-06-11T23:26:29.209Z,23.46
2023-06-11T23:31:36.339Z,23.40
2023-06-11T23:36:42.491Z,23.33
2023-06-11T23:41:46.165Z,23.26
2023-06-11T23:46:51.059Z,23.21
2023-06-11T23:51:56.062Z,23.13
2023-06-11T23:57:04.717Z,23.06
